Flight Track Log - Related Links

Times and Time Zones

All times are in EST time to prevent confusion due to time zone crossing. See the SWA862 flight status page for this flight to view local times or setup timezone preferences in your user account.

Time Position Orientation Groundspeed Altitude Reporting Facility
EST Latitude Longitude Course Direction KTS MPH feet Rate Location/Type
Sat 04:35:46 PM 18.4833 -65.9833 305° West 230 265 2,300  Level San Juan Center
Sat 04:36:47 PM 18.5333 -66.0167 328° Northwest 250 288 4,600 2,281 Climbing San Juan Center
Sat 04:37:47 PM 18.5833 -66.0833 308° West 290 334 6,900 2,450 Climbing San Juan Center
Sat 04:38:47 PM 18.6500 -66.1500 317° Northwest 310 357 9,500 2,100 Climbing San Juan Center
Sat 04:39:47 PM 18.7167 -66.2167 317° Northwest 350 403 11,100 1,800 Climbing San Juan Center
Sat 04:40:47 PM 18.7833 -66.3167 305° West 400 460 13,100 2,500 Climbing San Juan Center
Sat 04:41:00 PM 18.7722 -66.5491 305° West  Level Estimated
Sat 04:41:47 PM 18.8500 -66.4000 310° West 400 460 16,100  Level San Juan Center
Sat 04:42:47 PM 18.9333 -66.4833 317° Northwest 410 472 18,200 2,400 Climbing San Juan Center
Sat 04:43:47 PM 19.0167 -66.5833 311° West 430 495 20,900 2,579 Climbing San Juan Center
Sat 04:44:48 PM 19.1000 -66.6667 317° Northwest 420 483 23,400 2,231 Climbing San Juan Center
Sat 04:45:48 PM 19.1667 -66.7667 305° West 420 483 25,400 1,900 Climbing San Juan Center
Sat 04:46:48 PM 19.2500 -66.8500 317° Northwest 440 506 27,200 1,800 Climbing San Juan Center
Sat 04:47:48 PM 19.3333 -66.9500 311° West 440 506 29,000 1,600 Climbing San Juan Center
Sat 04:48:48 PM 19.4167 -67.0667 307° West 460 529 30,400 1,800 Climbing San Juan Center
Sat 04:49:48 PM 19.4833 -67.1667 305° West 450 518 32,600 1,950 Climbing San Juan Center
Sat 04:50:48 PM 19.5667 -67.2667 311° West 450 518 34,300 2,033 Climbing San Juan Center
Sat 04:51:49 PM 19.6500 -67.3667 312° West 430 495 36,700 1,835 Climbing San Juan Center
Sat 04:52:49 PM 19.7167 -67.4667 305° West 410 472 38,000 650 Climbing San Juan Center
Sat 04:53:49 PM 19.7833 -67.5500 310° West 400 460 38,000  Level San Juan Center
Sat 04:54:49 PM 19.8500 -67.6333 310° West 400 460 38,000  Level San Juan Center
Sat 04:55:49 PM 19.9333 -67.7333 312° West 400 460 38,000  Level San Juan Center
Sat 04:56:49 PM 20.0000 -67.8333 305° West 400 460 38,000  Level San Juan Center
Sat 04:57:49 PM 20.0667 -67.9167 310° West 410 472 38,000  Level San Juan Center
Sat 04:58:47 PM 20.1594 -68.0278 312° West 411 473 38,000  Level Miami Center
Sat 04:59:47 PM 20.2428 -68.1436 307° West 411 473 38,000  Level Miami Center
Sat 05:00:47 PM 20.3033 -68.2192 311° West 562 647 38,000  Level Miami Center
Sat 05:01:48 PM 20.3711 -68.3164 307° West 470 541 38,000  Level Miami Center
Sat 05:02:47 PM 20.4286 -68.4189 301° West 428 493 38,000  Level Miami Center
Sat 05:03:47 PM 20.4844 -68.5236 300° West 412 474 38,000  Level Miami Center
Sat 05:04:47 PM 20.5481 -68.6258 304° West 407 468 38,000  Level Miami Center
Sat 05:05:47 PM 20.6075 -68.7283 302° West 407 468 38,000  Level Miami Center
Sat 05:06:48 PM 20.6631 -68.8314 300° West 412 474 38,000  Level Miami Center
Sat 05:07:47 PM 20.7247 -68.9383 302° West 412 474 38,000  Level Miami Center
Sat 05:08:47 PM 20.7861 -69.0411 303° West 412 474 38,000  Level Miami Center
Sat 05:09:47 PM 20.8433 -69.1464 300° West 412 474 38,000  Level Miami Center
Sat 05:10:47 PM 20.9047 -69.2492 303° West 412 474 38,000  Level Miami Center
Sat 05:11:48 PM 20.9619 -69.3547 300° West 412 474 38,000  Level Miami Center
Sat 05:12:47 PM 21.0211 -69.4578 302° West 412 474 38,000  Level Miami Center
Sat 05:13:47 PM 21.0783 -69.5614 301° West 412 474 38,000  Level Miami Center
Sat 05:14:47 PM 21.1353 -69.6647 301° West 412 474 38,000  Level Miami Center
Sat 05:15:47 PM 21.1942 -69.7683 301° West 412 474 38,000  Level Miami Center
Sat 05:16:47 PM 21.2511 -69.8719 301° West 412 474 38,000  Level Miami Center
Sat 05:17:47 PM 21.3097 -69.9758 301° West 412 474 38,000  Level Miami Center
Sat 05:18:47 PM 21.3686 -70.0794 301° West 412 474 38,000  Level Miami Center
Sat 05:19:47 PM 21.4275 -70.1856 301° West 412 474 38,000  Level Miami Center
Sat 05:20:47 PM 21.4861 -70.2897 301° West 412 474 38,000  Level Miami Center
Sat 05:21:48 PM 21.5447 -70.3917 302° West 412 474 38,000  Level Miami Center
Sat 05:22:47 PM 21.6014 -70.4958 300° West 412 474 38,000  Level Miami Center
Sat 05:23:47 PM 21.6597 -70.5978 302° West 412 474 38,000  Level Miami Center
Sat 05:24:47 PM 21.7181 -70.7022 301° West 412 474 38,000  Level Miami Center
Sat 05:25:47 PM 21.7767 -70.8089 301° West 412 474 38,000  Level Miami Center
Sat 05:26:47 PM 21.8328 -70.9114 301° West 412 474 38,000  Level Miami Center
Sat 05:27:47 PM 21.8911 -71.0161 301° West 412 474 38,000  Level Miami Center
Sat 05:28:47 PM 21.9494 -71.1231 300° West 412 474 38,000  Level Miami Center
Sat 05:29:47 PM 22.0075 -71.2258 301° West 412 474 38,000  Level Miami Center
Sat 05:30:47 PM 22.0636 -71.3308 300° West 412 474 38,000  Level Miami Center
Sat 05:31:47 PM 22.1214 -71.4358 301° West 412 474 38,000  Level Miami Center
Sat 05:32:47 PM 22.1794 -71.5408 301° West 412 474 38,000  Level Miami Center
Sat 05:33:47 PM 22.2375 -71.6483 300° West 412 474 38,000  Level Miami Center
Sat 05:34:47 PM 22.2953 -71.7539 301° West 412 474 38,000  Level Miami Center
Sat 05:35:47 PM 22.3511 -71.8592 300° West 412 474 38,000  Level Miami Center
Sat 05:36:47 PM 22.4067 -71.9650 300° West 412 474 38,000  Level Miami Center
Sat 05:37:47 PM 22.4622 -72.0683 300° West 412 474 38,000  Level Miami Center
Sat 05:38:47 PM 22.5217 -72.1694 302° West 412 474 38,000  Level Miami Center
Sat 05:39:47 PM 22.5769 -72.2756 299° West 412 474 38,000  Level Miami Center
Sat 05:40:47 PM 22.6344 -72.3814 300° West 412 474 38,000  Level Miami Center
Sat 05:41:47 PM 22.6919 -72.4897 300° West 412 474 38,000  Level Miami Center
Sat 05:42:47 PM 22.7472 -72.5958 299° West 412 474 38,000  Level Miami Center
Sat 05:43:47 PM 22.8044 -72.7019 300° West 407 468 38,000  Level Miami Center
Sat 05:44:47 PM 22.8575 -72.8086 298° West 407 468 38,000  Level Miami Center
Sat 05:45:47 PM 22.9167 -72.9169 301° West 407 468 38,000  Level Miami Center
Sat 05:46:47 PM 22.9758 -73.0214 302° West 412 474 38,000  Level Miami Center
Sat 05:47:47 PM 23.0306 -73.1258 300° West 406 467 38,000  Level Miami Center
Sat 05:48:47 PM 23.0833 -73.2303 299° West 401 461 38,000  Level Miami Center
Sat 05:49:47 PM 23.1403 -73.3369 300° West 401 461 38,000  Level Miami Center
Sat 05:50:47 PM 23.1950 -73.4464 299° West 407 468 38,000  Level Miami Center
Sat 05:51:47 PM 23.2494 -73.5511 300° West 407 468 38,000  Level Miami Center
Sat 05:52:47 PM 23.3103 -73.6581 302° West 407 468 38,000  Level Miami Center
Sat 05:53:47 PM 23.3647 -73.7653 299° West 412 474 38,000  Level Miami Center
Sat 05:54:47 PM 23.4192 -73.8703 299° West 412 474 38,000  Level Miami Center
Sat 05:55:47 PM 23.4756 -73.9756 300° West 412 474 38,000  Level Miami Center
Sat 05:56:47 PM 23.5319 -74.0806 300° West 412 474 38,000  Level Miami Center
Sat 05:57:47 PM 23.5839 -74.1861 298° West 412 474 38,000  Level Miami Center
Sat 05:58:47 PM 23.6381 -74.2914 299° West 407 468 38,000  Level Miami Center
Sat 05:59:47 PM 23.6942 -74.3992 300° West 407 468 38,000  Level Miami Center
Sat 06:00:47 PM 23.7500 -74.5047 300° West 407 468 38,000  Level Miami Center
Sat 06:01:47 PM 23.8061 -74.6128 300° West 412 474 38,000  Level Miami Center
Sat 06:02:47 PM 23.8619 -74.7186 300° West 412 474 38,000  Level Miami Center
Sat 06:03:47 PM 23.9158 -74.8244 299° West 407 468 38,000  Level Miami Center
Sat 06:04:47 PM 23.9717 -74.9350 299° West 407 468 38,000  Level Miami Center
Sat 06:05:47 PM 24.0272 -75.0389 300° West 402 463 38,000  Level Miami Center
Sat 06:06:47 PM 24.0806 -75.1450 299° West 402 463 38,000  Level Miami Center
Sat 06:07:47 PM 24.1319 -75.2514 298° West 397 457 38,000  Level Miami Center
Sat 06:08:47 PM 24.1853 -75.3553 299° West 397 457 38,000  Level Miami Center
Sat 06:09:47 PM 24.2386 -75.4619 299° West 397 457 38,000  Level Miami Center
Sat 06:10:47 PM 24.2939 -75.5661 300° West 392 451 38,000  Level Miami Center
Sat 06:11:47 PM 24.3450 -75.6706 298° West 387 445 38,000  Level Miami Center
Sat 06:12:47 PM 24.3981 -75.7772 299° West 387 445 38,000  Level Miami Center
Sat 06:13:47 PM 24.4511 -75.8842 299° West 387 445 38,000  Level Miami Center
Sat 06:14:47 PM 24.5039 -75.9908 299° West 387 445 38,000  Level Miami Center
Sat 06:15:47 PM 24.5611 -76.0981 300° West 387 445 38,000  Level Miami Center
Sat 06:16:47 PM 24.6117 -76.2050 297° West 395 455 38,000  Level Miami Center
Sat 06:17:47 PM 24.6644 -76.3053 300° West 401 461 38,000  Level Miami Center
Sat 06:18:47 PM 24.7192 -76.4264 296° West 401 461 38,000  Level Miami Center
Sat 06:19:47 PM 24.7736 -76.5361 299° West 406 467 38,000  Level Miami Center
Sat 06:20:47 PM 24.8303 -76.6436 300° West 406 467 38,000  Level Miami Center
Sat 06:21:47 PM 24.8847 -76.7533 299° West 411 473 38,000  Level Miami Center
Sat 06:22:47 PM 24.9350 -76.8611 297° West 411 473 38,000  Level Miami Center
Sat 06:23:47 PM 24.9914 -76.9711 300° West 411 473 38,000 -200 Level Miami Center
Sat 06:24:47 PM 25.0436 -77.0789 298° West 411 473 37,600 -700 Descending Miami Center
Sat 06:25:47 PM 25.0997 -77.1917 299° West 411 473 36,600 -800 Descending Miami Center
Sat 06:26:47 PM 25.1558 -77.3042 299° West 411 473 36,000 -300 Descending Miami Center
Sat 06:27:47 PM 25.2119 -77.4192 298° West 411 473 36,000  Level Miami Center
Sat 06:28:47 PM 25.2594 -77.5228 297° West 411 473 36,000  Level Miami Center
Sat 06:29:47 PM 25.2986 -77.6403 290° West 411 473 36,000  Level Miami Center
Sat 06:30:47 PM 25.3294 -77.7600 286° West 406 467 36,000 -450 Level Miami Center
Sat 06:31:47 PM 25.3642 -77.8800 288° West 406 467 35,100 -950 Descending Miami Center
Sat 06:32:47 PM 25.4008 -78.0044 288° West 406 467 34,100 -1,700 Descending Miami Center
Sat 06:33:47 PM 25.4311 -78.1222 286° West 406 467 31,700 -2,400 Descending Miami Center
Sat 06:34:47 PM 25.4656 -78.2422 288° West 406 467 29,300 -2,200 Descending Miami Center
Sat 06:35:47 PM 25.4958 -78.3575 286° West 400 460 27,300 -2,000 Descending Miami Center
Sat 06:36:47 PM 25.5281 -78.4664 288° West 394 453 25,300 -2,000 Descending Miami Center
Sat 06:37:47 PM 25.5561 -78.5794 285° West 383 441 23,300 -2,000 Descending Miami Center
Sat 06:38:47 PM 25.5906 -78.6836 290° West 383 441 21,300 -1,950 Descending Miami Center
Sat 06:39:47 PM 25.6183 -78.7922 286° West 378 435 19,400 -1,850 Descending Miami Center
Sat 06:40:47 PM 25.6481 -78.9036 287° West 378 435 17,600 -1,950 Descending Miami Center
Sat 06:41:47 PM 25.6861 -79.0172 290° West 384 442 15,500 -2,100 Descending Miami Center
Sat 06:42:47 PM 25.7158 -79.1283 287° West 384 442 13,400 -2,050 Descending Miami Center
Sat 06:43:47 PM 25.7497 -79.2375 289° West 384 442 11,400 -1,600 Descending Miami Center
Sat 06:44:47 PM 25.7728 -79.3486 283° West 358 412 10,200 -1,100 Descending Miami Center
Sat 06:45:47 PM 25.7944 -79.4275 287° West 311 358 9,200 -1,200 Descending Miami Center
Sat 06:46:22 PM 25.8081 -79.4878 284° West 284 327 8,300 -1,500 Descending Miami Center
Sat 06:46:47 PM 25.8200 -79.5203 292° West 292 336 7,700 -1,370 Descending Miami Center
Sat 06:47:54 PM 25.8433 -79.6133 286° West 276 318 6,200 -850 Descending Miami Center
Sat 06:48:47 PM 25.8672 -79.6717 294° West 281 323 6,000 -164 Descending Miami Center
Sat 06:49:07 PM 25.8792 -79.7064 291° West 265 305 6,000  Level Miami Center
Sat 06:49:47 PM 25.8994 -79.7439 301° West 270 311 6,000  Level Miami Center
Sat 06:50:14 PM 25.9153 -79.7906 291° West 269 310 6,000  Level Miami Center
Sat 06:50:47 PM 25.9314 -79.8186 303° West 270 311 6,000  Level Miami Center
Sat 06:51:09 PM 25.9450 -79.8606 290° West 269 310 6,000  Level Miami Center
Sat 06:51:47 PM 25.9692 -79.9028 302° West 270 311 6,000  Level Miami Center
Sat 06:52:10 PM 25.9750 -79.9328 282° West 266 306 6,000  Level Miami Center
Sat 06:53:11 PM 26.0153 -80.0033 302° West 267 307 6,000  Level Miami Center
Sat 06:53:47 PM 26.0500 -80.0367 319° Northwest 270 311 6,000  Level Miami Center
Sat 06:54:06 PM 26.0622 -80.0553 306° West 264 304 6,000  Level Miami Center
Sat 06:54:47 PM 26.0989 -80.0956 315° West 265 305 6,000 -295 Level Miami Center
Sat 06:55:07 PM 26.1131 -80.1169 306° West 266 306 5,700 -1,400 Descending Miami Center
Sat 06:55:47 PM 26.1475 -80.1572 314° West 265 305 4,600 -1,377 Descending Miami Center
Sat 06:56:08 PM 26.1469 -80.1894 269° West 268 308 4,300 -1,091 Descending Miami Center
Sat 06:57:15 PM 26.1344 -80.2725 261° West 256 295 3,000 -1,125 Descending Miami Center
Sat 06:58:16 PM 26.0867 -80.2642 171° South 175 201 1,900 -984 Descending Miami Center
Sat 06:59:17 PM 26.0750 -80.2222 107° East 129 148 1,000 -787 Descending Miami Center
Sat 07:00:18 PM 26.0719 -80.1828 95° East 130 150 300 -689 Descending Miami Center
Sat 07:02:00 PM 26.0667 -80.1500 77° East  Level FlightAware Approximate

Login

Don't have an account? Register now (free) for customized features, flight alerts, and more!